createdAt,value
2018-10-15T08:25:05.252Z,17.50
2018-10-15T08:40:38.992Z,17.27
2018-10-15T08:56:12.098Z,17.81
2018-10-15T09:11:44.971Z,18.39
2018-10-15T09:27:18.907Z,18.99
2018-10-15T09:42:53.752Z,18.72
2018-10-15T09:58:27.442Z,19.20
2018-10-15T10:14:00.815Z,19.79
2018-10-15T10:29:34.807Z,19.69
2018-10-15T10:45:08.446Z,20.48
2018-10-15T11:00:42.255Z,20.94
2018-10-15T11:16:16.366Z,20.65
2018-10-15T11:31:49.033Z,20.79
2018-10-15T11:47:23.067Z,20.84
2018-10-15T12:02:57.502Z,20.79
2018-10-15T12:18:31.206Z,20.97
2018-10-15T12:34:04.321Z,21.13
2018-10-15T12:49:38.907Z,20.51
2018-10-15T13:05:34.891Z,20.54
2018-10-15T13:21:08.414Z,20.52
2018-10-15T13:36:42.110Z,19.90
2018-10-15T13:52:15.979Z,19.42
2018-10-15T14:07:49.646Z,19.06
2018-10-15T14:23:23.614Z,18.75
2018-10-15T14:38:56.946Z,18.23
2018-10-15T14:54:29.937Z,17.68
2018-10-15T15:10:15.188Z,16.87
2018-10-15T15:25:48.728Z,16.35
2018-10-15T15:41:21.887Z,15.79
2018-10-15T15:56:55.621Z,15.54
2018-10-15T16:12:28.447Z,15.30
2018-10-15T16:28:02.280Z,15.19
2018-10-15T16:43:35.171Z,14.75
2018-10-15T16:59:08.362Z,14.31
2018-10-15T17:14:41.876Z,13.88
2018-10-15T17:30:15.077Z,13.55
2018-10-15T17:45:49.189Z,13.09
2018-10-15T18:01:23.719Z,12.80
2018-10-15T18:16:57.649Z,12.98
2018-10-15T18:32:31.894Z,12.87
2018-10-15T18:48:06.262Z,12.83
2018-10-15T19:03:41.055Z,12.81
2018-10-15T19:19:15.800Z,12.71
2018-10-15T19:34:50.791Z,12.62
2018-10-15T19:50:23.857Z,12.71
2018-10-15T20:05:57.841Z,12.58
2018-10-15T20:21:31.772Z,12.51
2018-10-15T20:37:05.712Z,12.58
2018-10-15T20:52:39.331Z,12.60
2018-10-15T21:08:13.212Z,12.43
2018-10-15T21:23:47.887Z,11.87
2018-10-15T21:39:22.628Z,11.68
2018-10-15T21:54:57.181Z,11.67
2018-10-15T22:10:37.168Z,11.67
2018-10-15T22:26:09.946Z,11.76
2018-10-15T22:41:43.242Z,11.69
2018-10-15T22:57:18.326Z,11.63
2018-10-15T23:12:53.351Z,11.21
2018-10-15T23:28:28.054Z,10.96
2018-10-15T23:44:02.192Z,10.86
2018-10-15T23:59:37.009Z,10.24
